createdAt,value
2019-02-25T00:44:40.127Z,-1.22
2019-02-25T00:47:11.714Z,-1.14
2019-02-25T00:49:42.299Z,-1.25
2019-02-25T00:52:13.005Z,-1.23
2019-02-25T00:54:43.640Z,-1.27
2019-02-25T00:57:14.207Z,-1.26
2019-02-25T00:59:44.713Z,-1.25
2019-02-25T01:02:17.248Z,-1.24
2019-02-25T01:04:47.978Z,-1.26
2019-02-25T01:07:18.481Z,-1.30
2019-02-25T01:09:48.907Z,-1.30
2019-02-25T01:12:19.537Z,-1.19
2019-02-25T01:14:50.076Z,-1.27
2019-02-25T01:17:22.242Z,-1.33
2019-02-25T01:19:52.726Z,-1.30
2019-02-25T01:22:24.203Z,-1.18
2019-02-25T01:24:54.714Z,-1.31
2019-02-25T01:27:30.704Z,-1.37
2019-02-25T01:33:10.875Z,-1.25
2019-02-25T01:35:42.018Z,-1.29
2019-02-25T01:43:58.143Z,-1.26
2019-02-25T01:49:25.818Z,-1.23
2019-02-25T01:57:39.933Z,-1.25
2019-02-25T02:03:08.751Z,-1.34
2019-02-25T02:09:32.571Z,-1.35
2019-02-25T02:13:27.117Z,-1.26
2019-02-25T02:19:11.826Z,-1.29
2019-02-25T02:21:51.956Z,-1.30
2019-02-25T02:24:28.574Z,-1.24
2019-02-25T02:32:56.408Z,-1.13
2019-02-25T02:35:47.349Z,-1.28
2019-02-25T03:12:19.561Z,-1.26
2019-02-25T03:27:57.630Z,-1.40
2019-02-25T03:47:08.250Z,-1.69
2019-02-25T03:49:38.796Z,-1.69
2019-02-25T03:52:15.686Z,-1.69
2019-02-25T03:54:48.810Z,-1.66
2019-02-25T03:57:18.758Z,-1.63
2019-02-25T03:59:49.228Z,-1.68
2019-02-25T04:02:20.128Z,-1.66
2019-02-25T04:04:52.301Z,-1.65
2019-02-25T04:07:22.757Z,-1.66
2019-02-25T04:09:53.581Z,-1.57
2019-02-25T04:12:25.200Z,-1.64
2019-02-25T04:14:58.707Z,-1.59
2019-02-25T04:17:32.197Z,-1.58
2019-02-25T04:20:02.658Z,-1.66
2019-02-25T04:22:37.208Z,-1.63
2019-02-25T04:25:09.396Z,-1.60
2019-02-25T04:27:41.390Z,-1.68
2019-02-25T04:30:16.311Z,-1.66
2019-02-25T04:32:47.014Z,-1.66
2019-02-25T04:35:17.600Z,-1.62
2019-02-25T04:37:48.124Z,-1.68
2019-02-25T04:40:21.015Z,-1.58
2019-02-25T04:42:53.629Z,-1.64
2019-02-25T04:45:24.301Z,-1.58
2019-02-25T04:47:54.850Z,-1.63
2019-02-25T04:50:29.748Z,-1.56
2019-02-25T04:53:00.177Z,-1.56
2019-02-25T04:55:31.075Z,-1.63
2019-02-25T04:58:01.609Z,-1.63
2019-02-25T05:00:32.918Z,-1.60
2019-02-25T05:03:05.152Z,-1.55
2019-02-25T05:05:37.620Z,-1.47
2019-02-25T05:08:09.298Z,-1.48
2019-02-25T05:10:42.897Z,-1.53
2019-02-25T05:13:14.985Z,-1.60
2019-02-25T05:15:49.609Z,-1.58
2019-02-25T05:18:22.176Z,-1.52
2019-02-25T05:20:52.352Z,-1.56
2019-02-25T05:23:23.118Z,-1.57
2019-02-25T05:25:53.860Z,-1.48
2019-02-25T05:28:28.746Z,-1.55
2019-02-25T05:30:59.228Z,-1.45
2019-02-25T05:33:31.320Z,-1.51
2019-02-25T05:36:12.701Z,-1.53
2019-02-25T05:38:38.914Z,-1.39
2019-02-25T05:41:09.489Z,-1.47
2019-02-25T05:43:41.390Z,-1.36
2019-02-25T05:46:11.900Z,-1.50
2019-02-25T05:48:45.699Z,-1.38
2019-02-25T05:51:15.938Z,-1.30
2019-02-25T05:53:49.628Z,-1.34
2019-02-25T05:56:22.923Z,-1.28
2019-02-25T05:58:59.204Z,-1.33
2019-02-25T06:01:31.518Z,-1.19
2019-02-25T06:04:02.880Z,-1.26
2019-02-25T06:06:35.525Z,-1.24
2019-02-25T06:09:08.501Z,-1.06
2019-02-25T06:11:39.956Z,-0.99
2019-02-25T06:14:10.607Z,-1.09
2019-02-25T06:16:41.350Z,-1.00
2019-02-25T06:19:12.232Z,-0.91
2019-02-25T06:21:49.883Z,-0.85
2019-02-25T06:24:20.411Z,-0.72
2019-02-25T06:29:35.548Z,-1.05
2019-02-25T06:32:06.531Z,-0.95
2019-02-25T06:34:42.772Z,-0.98
2019-02-25T06:37:18.892Z,-1.03
2019-02-25T06:39:50.602Z,-0.78
2019-02-25T06:42:21.356Z,-0.93
2019-02-25T06:44:52.723Z,-1.00
2019-02-25T06:47:26.744Z,-1.01
2019-02-25T06:50:02.211Z,-0.80
2019-02-25T06:52:35.181Z,-0.84
2019-02-25T06:58:23.062Z,-0.88
2019-02-25T07:00:55.292Z,-0.82
2019-02-25T07:03:27.563Z,-0.85
2019-02-25T07:06:02.552Z,-0.61
2019-02-25T07:08:37.633Z,-0.57
2019-02-25T07:11:12.714Z,-0.57
2019-02-25T07:14:03.196Z,-0.67
2019-02-25T07:16:48.148Z,-0.63
2019-02-25T07:19:23.319Z,-0.63
2019-02-25T07:21:57.531Z,-0.91
2019-02-25T07:24:52.627Z,-0.62
2019-02-25T07:27:38.226Z,-0.73
2019-02-25T07:30:30.570Z,-0.72
2019-02-25T07:33:05.856Z,-0.83
2019-02-25T07:35:45.889Z,-0.73
2019-02-25T07:38:23.409Z,-0.59
2019-02-25T07:41:18.566Z,-0.69
2019-02-25T07:44:11.174Z,-0.65
2019-02-25T07:46:48.093Z,-0.65
2019-02-25T07:49:40.934Z,-0.68
2019-02-25T07:52:20.871Z,-0.64
2019-02-25T07:54:55.972Z,-0.66
2019-02-25T07:57:29.206Z,-0.54
2019-02-25T08:00:07.246Z,-0.61
2019-02-25T08:02:47.764Z,-0.50
2019-02-25T08:05:39.879Z,-0.44
2019-02-25T08:08:20.947Z,-0.27
2019-02-25T08:11:06.501Z,0.11
2019-02-25T08:13:45.267Z,0.33
2019-02-25T08:16:29.425Z,0.33
2019-02-25T08:19:17.360Z,0.41
2019-02-25T08:21:54.814Z,0.92
2019-02-25T08:24:41.375Z,0.72
2019-02-25T08:27:21.102Z,0.37
2019-02-25T08:29:59.390Z,0.73
2019-02-25T08:32:33.855Z,0.36
2019-02-25T08:35:15.978Z,0.35
2019-02-25T08:37:51.880Z,0.38
2019-02-25T08:40:38.509Z,0.48
2019-02-25T08:43:17.795Z,0.50
2019-02-25T08:46:06.015Z,0.47
2019-02-25T08:48:55.997Z,0.59
2019-02-25T08:51:35.600Z,0.25
2019-02-25T08:54:07.325Z,0.18
2019-02-25T08:56:41.055Z,0.15
2019-02-25T08:59:15.943Z,0.19
2019-02-25T09:01:51.002Z,0.50
2019-02-25T09:04:25.035Z,0.35
2019-02-25T09:06:58.038Z,0.45
2019-02-25T09:09:31.147Z,0.50
2019-02-25T09:12:05.561Z,0.60
2019-02-25T09:14:38.947Z,0.64
2019-02-25T09:17:16.098Z,0.87
2019-02-25T09:19:45.806Z,1.08
2019-02-25T09:22:19.126Z,1.06
2019-02-25T09:24:49.808Z,1.45
2019-02-25T09:27:28.011Z,1.52
2019-02-25T09:30:01.511Z,1.30
2019-02-25T09:32:50.481Z,1.25
2019-02-25T09:35:22.550Z,1.51
2019-02-25T09:37:59.626Z,1.78
2019-02-25T09:40:31.995Z,1.60
2019-02-25T09:43:28.554Z,1.58
2019-02-25T09:45:58.067Z,1.53
2019-02-25T09:48:31.763Z,1.66
2019-02-25T09:51:03.079Z,1.68
2019-02-25T09:53:35.735Z,1.70
2019-02-25T09:56:06.681Z,1.65
2019-02-25T09:58:39.216Z,1.59
2019-02-25T10:01:11.463Z,1.62
2019-02-25T10:03:42.660Z,1.37
2019-02-25T10:06:19.136Z,1.69
2019-02-25T10:08:53.265Z,1.65
2019-02-25T10:11:43.463Z,1.58
2019-02-25T10:14:16.355Z,1.53
2019-02-25T10:16:46.857Z,1.50
2019-02-25T10:19:20.796Z,1.43
2019-02-25T10:21:51.548Z,1.57
2019-02-25T10:24:24.699Z,1.44
2019-02-25T10:26:59.963Z,1.34
2019-02-25T10:29:31.266Z,1.43
2019-02-25T10:32:06.572Z,1.25
2019-02-25T10:34:40.814Z,1.60
2019-02-25T10:37:13.190Z,1.61
2019-02-25T10:39:45.427Z,1.57
2019-02-25T10:45:38.924Z,1.65
2019-02-25T10:48:15.220Z,2.08
2019-02-25T10:50:55.979Z,1.93
2019-02-25T10:53:25.030Z,1.45
2019-02-25T10:56:40.964Z,1.51
2019-02-25T10:58:57.713Z,1.44
2019-02-25T11:01:31.201Z,1.57
2019-02-25T11:04:02.316Z,1.49
2019-02-25T11:06:36.031Z,1.48
2019-02-25T11:09:28.722Z,1.48
2019-02-25T11:12:00.117Z,1.72
2019-02-25T11:14:41.119Z,1.94
2019-02-25T11:17:31.439Z,2.24
2019-02-25T11:20:27.203Z,2.56
2019-02-25T11:22:48.606Z,2.42
2019-02-25T11:25:24.110Z,2.31
2019-02-25T11:27:55.855Z,2.24
2019-02-25T11:30:26.980Z,2.00
2019-02-25T11:33:02.009Z,1.82
2019-02-25T11:35:39.270Z,1.34
2019-02-25T11:38:18.409Z,1.45
2019-02-25T11:41:14.158Z,1.31
2019-02-25T11:43:48.699Z,1.33
2019-02-25T11:46:22.868Z,1.50
2019-02-25T11:48:56.059Z,1.39
2019-02-25T11:51:27.409Z,1.43
2019-02-25T11:54:00.200Z,1.72
2019-02-25T11:56:33.589Z,1.47
2019-02-25T11:59:04.965Z,1.55
2019-02-25T12:01:35.802Z,1.51
2019-02-25T12:04:11.404Z,1.64
2019-02-25T12:06:44.450Z,1.54
2019-02-25T12:09:15.676Z,1.93
2019-02-25T12:18:22.461Z,1.97
2019-02-25T12:20:58.148Z,1.76
2019-02-25T12:23:29.224Z,1.69
2019-02-25T12:29:16.695Z,1.82
2019-02-25T12:31:52.604Z,1.90
2019-02-25T12:34:26.415Z,1.92
2019-02-25T12:37:00.583Z,1.91
2019-02-25T12:40:05.028Z,1.86
2019-02-25T12:42:36.168Z,1.81
2019-02-25T12:45:12.403Z,1.80
2019-02-25T12:47:52.831Z,1.70
2019-02-25T12:50:33.209Z,1.78
2019-02-25T12:53:06.325Z,1.82
2019-02-25T12:55:44.012Z,1.97
2019-02-25T12:58:23.064Z,2.08
2019-02-25T13:01:09.359Z,2.04
2019-02-25T13:03:42.825Z,1.85
2019-02-25T13:09:25.055Z,1.72
2019-02-25T13:11:58.555Z,1.61
2019-02-25T13:14:30.732Z,1.69
2019-02-25T13:17:14.174Z,1.76
2019-02-25T13:20:04.613Z,1.85
2019-02-25T13:31:59.950Z,1.65
2019-02-25T13:35:03.272Z,1.67
2019-02-25T13:37:37.573Z,1.69
2019-02-25T13:40:17.398Z,1.70
2019-02-25T13:43:10.685Z,1.82
2019-02-25T13:45:46.381Z,1.79
2019-02-25T13:48:18.515Z,1.93
2019-02-25T13:50:55.568Z,1.90
2019-02-25T13:53:29.543Z,1.78
2019-02-25T13:56:13.028Z,1.78
2019-02-25T13:58:45.139Z,1.92
2019-02-25T14:01:15.592Z,1.89
2019-02-25T14:03:52.572Z,1.84
2019-02-25T14:06:24.036Z,1.84
2019-02-25T14:12:31.967Z,1.84
2019-02-25T14:15:05.144Z,1.99
2019-02-25T14:17:40.205Z,1.91
2019-02-25T14:20:25.428Z,1.94
2019-02-25T14:23:00.242Z,1.95
2019-02-25T14:25:42.909Z,2.00
2019-02-25T14:28:15.984Z,1.99
2019-02-25T14:30:57.533Z,2.02
2019-02-25T14:33:28.510Z,1.97
2019-02-25T14:36:04.883Z,1.99
2019-02-25T14:38:51.348Z,2.02
2019-02-25T14:41:27.836Z,2.07
2019-02-25T14:44:08.331Z,2.05
2019-02-25T14:46:39.473Z,2.03
2019-02-25T14:49:11.894Z,2.08
2019-02-25T14:51:52.745Z,2.03
2019-02-25T14:54:37.955Z,2.10
2019-02-25T14:57:09.970Z,2.13
2019-02-25T14:59:46.259Z,1.99
2019-02-25T15:02:17.767Z,2.03
2019-02-25T15:04:50.129Z,2.06
2019-02-25T15:07:20.621Z,2.01
2019-02-25T15:09:53.182Z,2.03
2019-02-25T15:12:29.494Z,2.02
2019-02-25T15:15:02.606Z,2.07
2019-02-25T15:17:33.227Z,2.10
2019-02-25T15:20:07.506Z,2.12
2019-02-25T15:22:38.669Z,2.09
2019-02-25T15:25:13.717Z,2.07
2019-02-25T15:27:44.838Z,2.10
2019-02-25T15:30:25.084Z,2.12
2019-02-25T15:32:59.900Z,2.07
2019-02-25T15:35:37.098Z,2.13
2019-02-25T15:38:18.673Z,2.09
2019-02-25T15:40:50.034Z,1.99
2019-02-25T15:43:25.455Z,2.00
2019-02-25T15:45:55.997Z,2.09
2019-02-25T15:48:30.954Z,2.08
2019-02-25T15:51:18.300Z,2.09
2019-02-25T15:53:51.926Z,2.08
2019-02-25T15:56:26.702Z,2.07
2019-02-25T15:58:58.114Z,2.09
2019-02-25T16:01:52.632Z,2.07
2019-02-25T16:04:43.736Z,2.09
2019-02-25T16:13:53.251Z,2.12
2019-02-25T16:16:26.685Z,2.16
2019-02-25T16:19:05.633Z,2.23
2019-02-25T16:21:40.994Z,2.21
2019-02-25T16:24:16.371Z,2.16
2019-02-25T16:26:48.689Z,2.13
2019-02-25T16:29:23.816Z,2.10
2019-02-25T16:31:58.179Z,2.12
2019-02-25T16:34:32.026Z,2.15
2019-02-25T16:37:04.743Z,2.19
2019-02-25T16:39:38.345Z,2.17
2019-02-25T16:42:11.334Z,2.20
2019-02-25T16:44:47.498Z,2.21
2019-02-25T16:47:31.906Z,2.20
2019-02-25T16:49:59.037Z,2.24
2019-02-25T16:52:32.047Z,2.29
2019-02-25T16:55:07.644Z,2.19
2019-02-25T16:57:43.302Z,2.20
2019-02-25T17:00:25.176Z,2.21
2019-02-25T17:02:54.982Z,2.22
2019-02-25T17:05:27.332Z,2.17
2019-02-25T17:07:58.429Z,2.15
2019-02-25T17:10:33.830Z,2.15
2019-02-25T17:13:05.861Z,2.14
2019-02-25T17:15:46.008Z,2.08
2019-02-25T17:18:25.320Z,2.11
2019-02-25T17:21:15.989Z,2.12
2019-02-25T17:23:51.565Z,2.07
2019-02-25T17:26:33.608Z,2.04
2019-02-25T17:29:07.571Z,1.97
2019-02-25T17:31:47.194Z,1.90
2019-02-25T17:34:22.475Z,1.83
2019-02-25T17:36:54.607Z,1.67
2019-02-25T17:39:54.080Z,1.54
2019-02-25T17:42:33.546Z,1.40
2019-02-25T17:48:13.688Z,1.23
2019-02-25T17:50:48.826Z,1.15
2019-02-25T17:53:24.024Z,1.14
2019-02-25T17:56:00.456Z,1.09
2019-02-25T17:58:38.256Z,1.10
2019-02-25T18:01:12.997Z,0.96
2019-02-25T18:03:52.638Z,0.94
2019-02-25T18:06:29.587Z,0.89
2019-02-25T18:09:02.157Z,0.87
2019-02-25T18:11:34.757Z,0.86
2019-02-25T18:14:09.178Z,0.84
2019-02-25T18:16:48.895Z,0.72
2019-02-25T18:19:20.842Z,0.68
2019-02-25T18:21:51.638Z,0.55
2019-02-25T18:24:26.782Z,0.53
2019-02-25T18:27:01.230Z,0.46
2019-02-25T18:29:37.510Z,0.48
2019-02-25T18:32:12.900Z,0.41
2019-02-25T18:34:50.438Z,0.32
2019-02-25T18:37:23.589Z,0.29
2019-02-25T18:39:57.174Z,0.23
2019-02-25T18:42:31.692Z,0.31
2019-02-25T18:45:02.425Z,0.26
2019-02-25T18:47:36.008Z,0.09
2019-02-25T18:50:15.173Z,0.09
2019-02-25T18:52:44.132Z,0.17
2019-02-25T18:55:19.302Z,0.03
2019-02-25T18:57:57.220Z,0.03
2019-02-25T19:00:36.517Z,-0.05
2019-02-25T19:03:10.839Z,-0.05
2019-02-25T19:05:45.136Z,-0.02
2019-02-25T19:08:20.324Z,-0.08
2019-02-25T19:11:00.970Z,-0.14
2019-02-25T19:13:34.403Z,-0.14
2019-02-25T19:16:17.624Z,-0.22
2019-02-25T19:19:06.173Z,-0.22
2019-02-25T19:24:46.659Z,-0.22
2019-02-25T19:27:19.811Z,-0.19
2019-02-25T19:29:51.554Z,-0.10
2019-02-25T19:32:28.681Z,-0.06
2019-02-25T19:35:01.267Z,-0.06
2019-02-25T19:37:37.721Z,-0.02
2019-02-25T19:40:14.252Z,-0.02
2019-02-25T19:42:52.207Z,0.03
2019-02-25T19:45:29.653Z,0.06
2019-02-25T19:48:05.324Z,0.00
2019-02-25T19:50:49.808Z,0.00
2019-02-25T19:53:15.199Z,0.01
2019-02-25T19:55:49.371Z,-0.09
2019-02-25T19:58:30.886Z,-0.09
2019-02-25T20:01:06.070Z,-0.04
2019-02-25T20:03:51.834Z,-0.07
2019-02-25T20:06:47.153Z,-0.05
2019-02-25T20:09:24.701Z,-0.01
2019-02-25T20:12:03.234Z,0.07
2019-02-25T20:15:13.657Z,0.00
2019-02-25T20:17:53.427Z,0.00
2019-02-25T20:20:25.926Z,-0.09
2019-02-25T20:23:06.164Z,-0.12
2019-02-25T20:25:42.374Z,-0.12
2019-02-25T20:28:12.044Z,-0.15
2019-02-25T20:30:44.653Z,-0.17
2019-02-25T20:33:16.364Z,-0.22
2019-02-25T20:35:51.254Z,-0.22
2019-02-25T20:38:24.563Z,-0.22
2019-02-25T20:41:00.567Z,-0.19
2019-02-25T20:43:33.917Z,-0.15
2019-02-25T20:46:06.026Z,-0.12
2019-02-25T20:48:44.508Z,-0.06
2019-02-25T20:51:13.670Z,-0.09
2019-02-25T20:54:02.610Z,-0.03
2019-02-25T20:56:36.651Z,-0.03
2019-02-25T20:59:10.015Z,0.00
2019-02-25T21:01:48.972Z,0.02
2019-02-25T21:04:24.883Z,0.02
2019-02-25T21:06:58.051Z,0.07
2019-02-25T21:09:33.724Z,0.08
2019-02-25T21:12:08.260Z,0.07
2019-02-25T21:14:45.012Z,0.11
2019-02-25T21:17:18.472Z,0.17
2019-02-25T21:19:49.149Z,0.19
2019-02-25T21:22:23.375Z,0.23
2019-02-25T21:25:03.094Z,0.24
2019-02-25T21:27:37.488Z,0.19
2019-02-25T21:30:16.909Z,0.21
2019-02-25T21:32:51.953Z,0.22
2019-02-25T21:38:08.388Z,0.06
2019-02-25T21:40:46.172Z,0.11
2019-02-25T21:43:18.684Z,0.08
2019-02-25T21:48:36.966Z,-0.01
2019-02-25T21:51:10.083Z,-0.06
2019-02-25T21:53:41.517Z,-0.13
2019-02-25T21:56:11.984Z,-0.13
2019-02-25T21:58:44.563Z,-0.20
2019-02-25T22:01:14.543Z,-0.20
2019-02-25T22:03:48.718Z,-0.20
2019-02-25T22:06:22.618Z,-0.18
2019-02-25T22:08:54.172Z,-0.21
2019-02-25T22:11:25.389Z,-0.21
2019-02-25T22:13:56.943Z,-0.16
2019-02-25T22:16:30.440Z,-0.16
2019-02-25T22:19:01.934Z,-0.18
2019-02-25T22:21:34.496Z,-0.07
2019-02-25T22:24:07.401Z,-0.08
2019-02-25T22:26:37.687Z,-0.01
2019-02-25T22:29:08.150Z,-0.01
2019-02-25T22:31:40.180Z,0.06
2019-02-25T22:34:12.962Z,0.14
2019-02-25T22:36:45.811Z,0.20
2019-02-25T22:39:14.964Z,0.24
2019-02-25T22:41:47.025Z,0.30
2019-02-25T22:44:17.704Z,0.24
2019-02-25T22:46:48.219Z,0.40
2019-02-25T22:49:19.601Z,0.44
2019-02-25T22:51:52.024Z,0.48
2019-02-25T22:54:25.286Z,0.54
2019-02-25T22:56:58.652Z,0.64
2019-02-25T22:59:29.168Z,0.64
2019-02-25T23:01:59.792Z,0.65
2019-02-25T23:04:31.055Z,0.78
2019-02-25T23:07:04.581Z,0.83
2019-02-25T23:09:35.028Z,0.98
2019-02-25T23:12:05.504Z,1.13
2019-02-25T23:14:36.636Z,1.26
2019-02-25T23:17:15.723Z,1.40
2019-02-25T23:19:45.983Z,1.53
2019-02-25T23:25:20.084Z,1.75
2019-02-25T23:27:51.728Z,1.85
2019-02-25T23:30:23.999Z,1.96
2019-02-25T23:32:56.483Z,1.97
2019-02-25T23:35:26.925Z,2.05
2019-02-25T23:37:58.601Z,2.08
2019-02-25T23:40:33.278Z,2.06
2019-02-25T23:43:27.144Z,2.06
2019-02-25T23:45:58.412Z,1.99
2019-02-25T23:48:32.904Z,1.99
2019-02-25T23:51:01.921Z,1.91
2019-02-25T23:53:32.923Z,1.93
2019-02-25T23:56:04.498Z,1.94
2019-02-25T23:58:38.375Z,1.97
